Time;durP1;ratioP1;P1;durP2;ratioP2;P2;SDS_P1;SDS_P2;PMS_P1;PMS_P2;Temp;Humidity;BMP_temperature;BMP_pressure;BME280_temperature;BME280_humidity;BME280_pressure;Samples;Min_cycle;Max_cycle;Signal;HPM_P1;HPM_P2
2022/08/30 00:02:55;;;;;;;11.60;6.00;;;;;19.20;97557.80;;;;110846;1250;41130;-70
2022/08/30 00:05:24;;;;;;;11.90;6.20;;;;;19.20;97550.40;;;;110828;1250;41305;-70
2022/08/30 00:07:54;;;;;;;12.40;6.80;;;;;19.20;97550.60;;;;110807;1249;41151;-70
2022/08/30 00:10:25;;;;;;;14.00;6.30;;;;;19.16;97544.20;;;;110725;1250;41155;-70
2022/08/30 00:12:56;;;;;;;12.00;6.70;;;;;19.14;97542.80;;;;110760;1249;41266;-70
2022/08/30 00:15:27;;;;;;;11.30;6.30;;;;;19.10;97548.60;;;;110905;1250;41146;-71
2022/08/30 00:17:58;;;;;;;10.90;6.00;;;;;19.10;97546.60;;;;110676;1249;41305;-71
2022/08/30 00:20:29;;;;;;;11.20;5.80;;;;;19.10;97548.00;;;;110834;1249;41898;-71
2022/08/30 00:22:58;;;;;;;12.90;7.00;;;;;19.08;97545.60;;;;110784;1249;41257;-70
2022/08/30 00:25:28;;;;;;;14.40;7.50;;;;;19.00;97544.00;;;;110939;1249;41177;-71
2022/08/30 00:27:57;;;;;;;12.60;6.70;;;;;19.00;97546.80;;;;110742;1251;42650;-71
2022/08/30 00:30:27;;;;;;;12.40;7.10;;;;;18.96;97542.40;;;;110750;1249;41161;-71
2022/08/30 00:32:58;;;;;;;13.10;6.80;;;;;18.90;97539.20;;;;110810;1249;41726;-71
2022/08/30 00:35:28;;;;;;;11.50;6.10;;;;;18.90;97543.00;;;;110855;1249;41360;-71
2022/08/30 00:37:57;;;;;;;14.70;7.80;;;;;18.86;97548.80;;;;110850;1249;41149;-71
2022/08/30 00:40:28;;;;;;;12.20;7.20;;;;;18.80;97553.80;;;;110571;1253;41257;-69
2022/08/30 00:42:59;;;;;;;12.30;7.00;;;;;18.74;97552.40;;;;110706;1251;41402;-70
2022/08/30 00:45:36;;;;;;;13.10;6.70;;;;;18.70;97557.60;;;;110615;1250;41361;-70
2022/08/30 00:48:06;;;;;;;16.70;9.40;;;;;18.70;97558.20;;;;110824;1250;41960;-70
2022/08/30 00:50:39;;;;;;;16.10;8.50;;;;;18.60;97552.20;;;;110812;1249;41581;-69
2022/08/30 00:53:12;;;;;;;12.40;7.30;;;;;18.60;97552.60;;;;110650;1249;41193;-70
2022/08/30 00:55:42;;;;;;;12.10;6.60;;;;;18.60;97553.20;;;;110716;1251;41912;-70
2022/08/30 00:58:20;;;;;;;20.10;11.10;;;;;18.54;97555.20;;;;110617;1250;41160;-70
2022/08/30 01:00:52;;;;;;;18.10;10.00;;;;;18.40;97555.40;;;;110747;1249;42252;-69
2022/08/30 01:03:22;;;;;;;21.70;11.10;;;;;18.38;97553.00;;;;110767;1249;41260;-71
2022/08/30 01:05:51;;;;;;;;;;;;;18.22;97551.20;;;;110673;1250;41252;-70
2022/08/30 01:08:22;;;;;;;15.30;8.10;;;;;18.20;97549.20;;;;110728;1251;41139;-70
2022/08/30 01:10:53;;;;;;;15.10;8.10;;;;;18.20;97553.20;;;;110616;1251;41160;-70
2022/08/30 01:13:25;;;;;;;15.80;9.10;;;;;18.20;97557.40;;;;110659;1252;41888;-68
2022/08/30 01:15:55;;;;;;;13.90;7.20;;;;;18.20;97560.80;;;;110572;1251;42234;-69
2022/08/30 01:18:27;;;;;;;14.40;7.60;;;;;18.20;97568.20;;;;110592;1249;41718;-69
2022/08/30 01:21:01;;;;;;;12.80;7.20;;;;;18.20;97562.20;;;;110727;1250;41543;-70
2022/08/30 01:23:32;;;;;;;11.80;5.80;;;;;18.20;97558.80;;;;110694;1249;41529;-69
2022/08/30 01:26:04;;;;;;;;;;;;;18.20;97555.60;;;;110559;1252;41181;-69
2022/08/30 01:28:34;;;;;;;11.70;6.30;;;;;18.20;97557.40;;;;110516;1252;42088;-70
2022/08/30 01:31:07;;;;;;;14.30;7.90;;;;;18.20;97552.80;;;;110569;1252;41381;-69
2022/08/30 01:33:37;;;;;;;;;;;;;18.20;97556.00;;;;110764;1251;41269;-70
2022/08/30 01:36:11;;;;;;;13.00;7.40;;;;;18.20;97557.40;;;;110795;1251;41887;-70
2022/08/30 01:38:48;;;;;;;14.20;7.90;;;;;18.20;97557.40;;;;110756;1251;41194;-70
2022/08/30 01:41:26;;;;;;;11.30;6.20;;;;;18.20;97554.80;;;;110763;1249;41914;-69
2022/08/30 01:44:02;;;;;;;11.20;6.10;;;;;18.20;97552.80;;;;110684;1249;41156;-70
2022/08/30 01:46:40;;;;;;;14.40;6.70;;;;;18.20;97551.80;;;;110581;1253;41136;-70
2022/08/30 01:49:15;;;;;;;12.40;6.40;;;;;18.20;97551.40;;;;110564;1252;41186;-69
2022/08/30 01:51:46;;;;;;;13.30;6.10;;;;;18.20;97553.80;;;;110646;1252;42531;-70
2022/08/30 01:54:18;;;;;;;11.20;5.90;;;;;18.20;97553.40;;;;110821;1250;41888;-69
2022/08/30 01:56:48;;;;;;;11.20;6.10;;;;;18.20;97551.20;;;;110696;1249;41253;-69
2022/08/30 01:59:17;;;;;;;12.20;6.20;;;;;18.20;97547.40;;;;110761;1250;41487;-69
2022/08/30 02:01:48;;;;;;;;;;;;;18.20;97545.20;;;;110636;1251;41143;-69
2022/08/30 02:04:19;;;;;;;11.80;5.70;;;;;18.10;97545.40;;;;110667;1251;41205;-69
2022/08/30 02:06:50;;;;;;;16.50;9.70;;;;;18.10;97548.40;;;;110629;1251;41607;-68
2022/08/30 02:09:20;;;;;;;15.10;9.40;;;;;18.02;97546.80;;;;110795;1249;41722;-68
2022/08/30 02:11:51;;;;;;;16.40;9.30;;;;;18.00;97553.80;;;;110844;1251;42668;-67
2022/08/30 02:14:22;;;;;;;20.50;10.50;;;;;17.90;97553.60;;;;110771;1249;41173;-69
2022/08/30 02:16:52;;;;;;;18.70;9.60;;;;;17.90;97554.20;;;;110871;1250;41395;-67
2022/08/30 02:19:22;;;;;;;15.20;8.00;;;;;17.80;97557.80;;;;110957;1250;41497;-68
2022/08/30 02:21:51;;;;;;;12.40;7.10;;;;;17.80;97564.40;;;;110905;1250;41140;-68
2022/08/30 02:24:22;;;;;;;13.00;7.50;;;;;17.80;97563.00;;;;110706;1249;41859;-68
2022/08/30 02:26:53;;;;;;;12.40;7.00;;;;;17.80;97565.80;;;;110607;1249;41636;-68
2022/08/30 02:29:24;;;;;;;13.10;6.80;;;;;17.80;97565.40;;;;110772;1249;42279;-68
2022/08/30 02:31:55;;;;;;;15.60;6.50;;;;;17.80;97560.60;;;;110784;1249;41130;-68
2022/08/30 02:34:25;;;;;;;13.00;6.60;;;;;17.80;97561.60;;;;110753;1249;42241;-68
2022/08/30 02:36:56;;;;;;;10.70;5.90;;;;;17.80;97562.80;;;;110817;1250;42946;-68
2022/08/30 02:39:26;;;;;;;;;;;;;17.80;97565.20;;;;110867;1249;41261;-66
2022/08/30 02:41:56;;;;;;;14.00;8.20;;;;;17.70;97564.60;;;;110863;1249;41536;-67
2022/08/30 02:44:26;;;;;;;13.60;7.90;;;;;17.70;97566.40;;;;110900;1251;41261;-67
2022/08/30 02:46:56;;;;;;;;;;;;;17.70;97565.60;;;;110577;1252;41158;-67
2022/08/30 02:49:26;;;;;;;11.50;5.90;;;;;17.68;97562.40;;;;111009;1249;41616;-66
2022/08/30 02:52:03;;;;;;;13.30;6.20;;;;;17.62;97560.60;;;;110934;1250;41168;-67
2022/08/30 02:54:35;;;;;;;12.40;6.10;;;;;17.60;97558.20;;;;110803;1251;41158;-66
2022/08/30 02:57:07;;;;;;;11.90;5.90;;;;;17.60;97555.00;;;;110826;1250;41236;-69
2022/08/30 02:59:49;;;;;;;11.70;6.20;;;;;17.60;97551.20;;;;110693;1251;41191;-67
2022/08/30 03:02:21;;;;;;;11.50;6.30;;;;;17.60;97548.80;;;;110753;1250;41158;-67
2022/08/30 03:04:51;;;;;;;13.10;6.10;;;;;17.60;97551.20;;;;111020;1250;43234;-67
2022/08/30 03:07:22;;;;;;;11.30;5.90;;;;;17.60;97549.00;;;;110675;1250;41187;-66
2022/08/30 03:09:53;;;;;;;12.30;6.50;;;;;17.60;97551.00;;;;110746;1250;41392;-66
2022/08/30 03:12:24;;;;;;;;;;;;;17.60;97555.00;;;;110809;1249;41159;-66
2022/08/30 03:14:54;;;;;;;14.20;8.00;;;;;17.60;97548.80;;;;110879;1249;41155;-67
2022/08/30 03:17:23;;;;;;;12.00;7.20;;;;;17.60;97548.40;;;;111029;1251;41248;-68
2022/08/30 03:19:53;;;;;;;18.00;10.30;;;;;17.60;97551.60;;;;111003;1250;40921;-67
2022/08/30 03:22:24;;;;;;;14.00;8.60;;;;;17.60;97554.60;;;;110700;1251;41414;-67
2022/08/30 03:24:58;;;;;;;12.90;7.20;;;;;17.60;97555.20;;;;110573;1251;41834;-67
2022/08/30 03:27:30;;;;;;;12.50;6.60;;;;;17.60;97557.20;;;;110841;1249;41131;-68
2022/08/30 03:30:00;;;;;;;12.00;5.90;;;;;17.60;97559.40;;;;110854;1249;42320;-67
2022/08/30 03:32:29;;;;;;;11.90;6.10;;;;;17.60;97563.80;;;;110772;1249;41155;-69
2022/08/30 03:35:00;;;;;;;14.40;6.30;;;;;17.60;97566.60;;;;111059;1249;41950;-67
2022/08/30 03:37:30;;;;;;;12.40;6.00;;;;;17.60;97571.00;;;;110862;1249;41163;-68
2022/08/30 03:40:01;;;;;;;13.90;6.90;;;;;17.60;97574.80;;;;110870;1249;41152;-67
2022/08/30 03:42:33;;;;;;;14.30;6.90;;;;;17.68;97573.60;;;;110760;1249;42255;-66
2022/08/30 03:45:05;;;;;;;18.80;10.20;;;;;17.70;97584.00;;;;110972;1249;41921;-67
2022/08/30 03:47:36;;;;;;;16.50;9.90;;;;;17.70;97588.00;;;;110993;1249;41155;-69
2022/08/30 03:50:08;;;;;;;;;;;;;17.70;97588.80;;;;111019;1249;42073;-67
2022/08/30 03:52:38;;;;;;;18.70;8.90;;;;;17.70;97589.00;;;;110938;1251;42267;-65
2022/08/30 03:55:08;;;;;;;14.10;8.20;;;;;17.66;97587.40;;;;110794;1249;41142;-67
2022/08/30 03:57:39;;;;;;;13.30;6.70;;;;;17.70;97590.80;;;;110793;1250;41159;-66
2022/08/30 04:00:14;;;;;;;12.20;6.20;;;;;17.70;97593.20;;;;110968;1249;41271;-67
2022/08/30 04:02:43;;;;;;;14.40;6.60;;;;;17.78;97597.60;;;;111110;1249;41947;-67
2022/08/30 04:05:13;;;;;;;11.40;6.00;;;;;17.80;97593.80;;;;110997;1250;41397;-68
2022/08/30 04:07:42;;;;;;;12.70;6.20;;;;;17.90;97589.20;;;;111035;1249;41149;-68
2022/08/30 04:10:11;;;;;;;10.70;6.10;;;;;18.00;97581.60;;;;110834;1250;41128;-68
2022/08/30 04:12:41;;;;;;;11.40;6.50;;;;;18.12;97587.00;;;;110959;1249;41335;-68
2022/08/30 04:15:15;;;;;;;10.40;5.60;;;;;18.30;97575.60;;;;111115;1250;41720;-67
2022/08/30 04:17:44;;;;;;;10.70;6.10;;;;;18.50;97578.40;;;;110982;1251;41143;-67
2022/08/30 04:20:14;;;;;;;11.60;5.70;;;;;18.64;97587.80;;;;111022;1248;41269;-67
2022/08/30 04:22:44;;;;;;;10.90;5.40;;;;;18.80;97587.20;;;;110871;1249;41944;-67
2022/08/30 04:25:13;;;;;;;10.10;5.50;;;;;18.96;97562.40;;;;110807;1249;41846;-67
2022/08/30 04:27:44;;;;;;;14.10;6.30;;;;;19.30;97564.60;;;;110784;1250;42044;-67
2022/08/30 04:30:15;;;;;;;11.60;6.10;;;;;19.52;97552.80;;;;111044;1249;42166;-68
2022/08/30 04:32:45;;;;;;;11.30;6.50;;;;;19.88;97553.00;;;;110829;1251;41618;-66
2022/08/30 04:35:14;;;;;;;11.80;6.50;;;;;20.20;97550.40;;;;110888;1250;41189;-67
2022/08/30 04:37:43;;;;;;;12.80;7.20;;;;;20.58;97568.80;;;;110882;1250;41610;-67
2022/08/30 04:40:13;;;;;;;12.20;6.90;;;;;20.90;97583.60;;;;111029;1250;42297;-66
2022/08/30 04:42:46;;;;;;;15.60;9.70;;;;;21.10;97595.60;;;;110977;1249;41479;-66
2022/08/30 04:45:15;;;;;;;22.10;11.20;;;;;21.12;97608.80;;;;111077;1249;42730;-67
2022/08/30 04:47:44;;;;;;;15.90;9.70;;;;;20.82;97608.20;;;;111202;1251;42176;-67
2022/08/30 04:50:16;;;;;;;15.10;9.20;;;;;20.58;97606.60;;;;110883;1250;41239;-68
2022/08/30 04:52:46;;;;;;;16.40;8.90;;;;;20.38;97602.80;;;;110709;1250;41143;-67
2022/08/30 04:55:15;;;;;;;18.20;8.60;;;;;20.30;97610.40;;;;109607;1249;1411874;-66
2022/08/30 04:57:47;;;;;;;12.60;7.20;;;;;20.40;97607.80;;;;110758;1249;41138;-66
2022/08/30 05:00:19;;;;;;;13.40;7.80;;;;;20.54;97614.20;;;;110701;1250;41157;-65
2022/08/30 05:02:48;;;;;;;17.50;10.70;;;;;20.60;97615.20;;;;110688;1249;41610;-67
2022/08/30 05:08:13;;;;;;;15.00;8.80;;;;;20.30;97632.60;;;;110659;1250;41924;-67
2022/08/30 05:10:49;;;;;;;16.80;8.10;;;;;20.22;97631.20;;;;110713;1250;42544;-67
2022/08/30 05:13:20;;;;;;;16.30;9.70;;;;;20.20;97628.60;;;;110746;1250;41162;-67
2022/08/30 05:16:05;;;;;;;15.80;8.40;;;;;20.12;97632.80;;;;110930;1250;41401;-67
2022/08/30 05:18:35;;;;;;;14.20;7.20;;;;;20.20;97632.60;;;;110664;1251;41139;-67
2022/08/30 05:21:10;;;;;;;17.00;6.90;;;;;20.20;97626.40;;;;110959;1250;41146;-68
2022/08/30 05:23:39;;;;;;;13.60;7.50;;;;;20.20;97621.20;;;;110611;1252;41648;-68
2022/08/30 05:26:18;;;;;;;14.20;8.10;;;;;20.30;97625.00;;;;110657;1251;40894;-68
2022/08/30 05:28:48;;;;;;;12.80;7.50;;;;;20.30;97622.00;;;;110682;1250;41128;-67
2022/08/30 05:31:19;;;;;;;;;;;;;20.40;97622.60;;;;111019;1251;42145;-69
2022/08/30 05:33:49;;;;;;;14.20;7.00;;;;;20.60;97620.80;;;;111095;1249;41620;-67
2022/08/30 05:36:19;;;;;;;14.00;8.30;;;;;20.80;97629.40;;;;111017;1250;41143;-68
2022/08/30 05:38:49;;;;;;;14.90;9.40;;;;;21.10;97631.20;;;;110600;1250;41142;-68
2022/08/30 05:41:20;;;;;;;15.40;8.00;;;;;21.20;97632.80;;;;110754;1250;41168;-68
2022/08/30 05:43:51;;;;;;;;;;;;;21.38;97630.60;;;;110766;1250;41163;-67
2022/08/30 05:46:20;;;;;;;17.10;8.80;;;;;21.50;97626.80;;;;111055;1251;41115;-69
2022/08/30 05:48:50;;;;;;;15.80;9.10;;;;;21.70;97624.60;;;;110641;1252;41143;-68
2022/08/30 05:51:22;;;;;;;15.20;8.50;;;;;22.08;97614.40;;;;110590;1252;41145;-68
2022/08/30 05:53:52;;;;;;;16.30;9.50;;;;;22.84;97604.20;;;;110813;1250;41199;-68
2022/08/30 05:56:24;;;;;;;16.70;8.50;;;;;23.54;97597.60;;;;110762;1252;41617;-69
2022/08/30 05:58:54;;;;;;;16.40;9.10;;;;;24.46;97596.60;;;;110703;1252;41165;-67
2022/08/30 06:01:27;;;;;;;15.80;9.20;;;;;25.20;97593.40;;;;110623;1251;41235;-71
2022/08/30 06:03:59;;;;;;;14.80;7.70;;;;;24.96;97596.60;;;;110717;1252;42074;-69
2022/08/30 06:06:33;;;;;;;14.10;7.80;;;;;25.48;97597.80;;;;110828;1250;41127;-68
2022/08/30 06:09:04;;;;;;;14.40;8.00;;;;;25.90;97602.00;;;;110635;1252;41149;-68
2022/08/30 06:11:34;;;;;;;15.00;8.30;;;;;26.22;97609.40;;;;110588;1252;41496;-68
2022/08/30 06:14:03;;;;;;;18.40;7.30;;;;;26.30;97614.40;;;;110644;1250;41358;-68
2022/08/30 06:16:34;;;;;;;12.30;6.40;;;;;26.02;97617.60;;;;110686;1252;41616;-69
2022/08/30 06:19:03;;;;;;;;;;;;;26.16;97606.80;;;;110720;1252;41622;-68
2022/08/30 06:21:34;;;;;;;9.90;5.60;;;;;26.74;97601.60;;;;110720;1249;41603;-68
2022/08/30 06:24:05;;;;;;;11.30;6.30;;;;;27.42;97602.80;;;;111248;1249;41343;-69
2022/08/30 06:26:40;;;;;;;13.00;6.00;;;;;27.98;97607.00;;;;111080;1251;41924;-68
2022/08/30 06:29:12;;;;;;;11.90;5.60;;;;;28.40;97604.20;;;;110976;1251;41133;-68
2022/08/30 06:31:41;;;;;;;11.10;5.40;;;;;28.54;97606.60;;;;110961;1250;41139;-67
2022/08/30 06:34:10;;;;;;;12.10;6.30;;;;;28.86;97603.60;;;;110660;1252;41131;-69
2022/08/30 06:36:39;;;;;;;10.80;5.80;;;;;29.30;97604.00;;;;110813;1249;41255;-69
2022/08/30 06:39:09;;;;;;;11.40;6.50;;;;;29.50;97598.80;;;;110937;1251;41668;-69
2022/08/30 06:41:39;;;;;;;10.60;5.10;;;;;29.66;97596.40;;;;110847;1250;41151;-69
2022/08/30 06:44:26;;;;;;;9.70;4.50;;;;;30.22;97593.00;;;;110790;1250;41155;-69
2022/08/30 06:46:55;;;;;;;10.10;4.80;;;;;30.70;97599.80;;;;110692;1250;41152;-69
2022/08/30 06:49:24;;;;;;;10.30;4.40;;;;;31.20;97601.60;;;;110980;1251;41896;-69
2022/08/30 06:51:54;;;;;;;10.70;4.00;;;;;31.60;97601.20;;;;111040;1250;41734;-68
2022/08/30 06:54:22;;;;;;;10.40;5.10;;;;;32.10;97602.40;;;;110710;1251;41148;-69
2022/08/30 06:56:51;;;;;;;11.50;5.10;;;;;32.50;97605.20;;;;110727;1251;41456;-69
2022/08/30 06:59:26;;;;;;;8.80;3.80;;;;;32.74;97606.40;;;;110935;1250;41138;-70
2022/08/30 07:01:56;;;;;;;11.70;5.00;;;;;33.10;97608.20;;;;110875;1249;41244;-69
2022/08/30 07:04:25;;;;;;;12.10;4.90;;;;;33.40;97609.60;;;;110748;1250;41252;-70
2022/08/30 07:06:54;;;;;;;9.90;5.30;;;;;33.22;97609.80;;;;110633;1251;41192;-67
2022/08/30 07:09:23;;;;;;;11.40;3.90;;;;;31.84;97615.40;;;;110867;1251;42457;-70
2022/08/30 07:11:53;;;;;;;13.70;5.80;;;;;32.00;97615.40;;;;110944;1248;41158;-70
2022/08/30 07:14:22;;;;;;;11.40;4.50;;;;;31.94;97614.40;;;;110801;1249;42253;-70
2022/08/30 07:16:50;;;;;;;12.10;5.90;;;;;31.96;97613.00;;;;110682;1250;41697;-70
2022/08/30 07:19:21;;;;;;;12.60;5.90;;;;;32.30;97614.20;;;;110766;1250;42248;-70
2022/08/30 07:21:50;;;;;;;11.60;5.40;;;;;31.60;97616.60;;;;110623;1252;41266;-70
2022/08/30 07:24:19;;;;;;;11.20;5.30;;;;;31.80;97618.80;;;;110820;1251;41646;-70
2022/08/30 07:26:50;;;;;;;9.50;4.50;;;;;31.90;97617.80;;;;110809;1251;41212;-71
2022/08/30 07:29:20;;;;;;;19.10;5.70;;;;;32.18;97616.40;;;;110738;1251;41161;-71
2022/08/30 07:31:49;;;;;;;12.40;4.80;;;;;32.40;97612.80;;;;110981;1250;41173;-70
2022/08/30 07:34:17;;;;;;;13.20;4.90;;;;;32.70;97617.60;;;;110950;1249;41190;-70
2022/08/30 07:36:48;;;;;;;13.00;4.70;;;;;33.04;97619.00;;;;110689;1253;41141;-69
2022/08/30 07:39:18;;;;;;;11.30;5.30;;;;;33.30;97621.80;;;;110803;1251;41208;-69
2022/08/30 07:41:47;;;;;;;13.10;6.20;;;;;33.42;97619.00;;;;110936;1250;41231;-70
2022/08/30 07:44:17;;;;;;;11.10;5.30;;;;;33.06;97621.60;;;;111032;1250;41142;-69
2022/08/30 07:46:46;;;;;;;10.80;5.00;;;;;31.72;97627.40;;;;110898;1250;41127;-68
2022/08/30 07:49:15;;;;;;;13.50;6.30;;;;;31.60;97622.80;;;;110871;1250;41263;-68
2022/08/30 07:51:44;;;;;;;9.60;4.50;;;;;31.70;97623.00;;;;110839;1250;41862;-69
2022/08/30 07:54:13;;;;;;;10.90;4.60;;;;;31.80;97621.00;;;;110744;1250;41142;-69
2022/08/30 07:56:42;;;;;;;14.90;7.00;;;;;32.18;97619.20;;;;110628;1251;41142;-68
2022/08/30 07:59:11;;;;;;;11.60;5.40;;;;;32.34;97615.40;;;;110640;1250;41151;-68
2022/08/30 08:01:40;;;;;;;13.20;5.40;;;;;32.20;97624.60;;;;110600;1251;41606;-68
2022/08/30 08:04:09;;;;;;;11.00;4.60;;;;;32.12;97628.80;;;;110619;1250;41173;-70
2022/08/30 08:06:39;;;;;;;10.10;4.40;;;;;32.18;97632.00;;;;110714;1250;41472;-70
2022/08/30 08:09:08;;;;;;;12.20;5.00;;;;;32.00;97632.60;;;;110980;1250;42388;-69
2022/08/30 08:11:39;;;;;;;8.90;3.80;;;;;31.80;97630.80;;;;110815;1251;41501;-68
2022/08/30 08:14:08;;;;;;;10.70;4.30;;;;;31.76;97631.60;;;;110815;1250;42364;-69
2022/08/30 08:16:37;;;;;;;10.10;4.40;;;;;31.80;97629.60;;;;110665;1251;41755;-69
2022/08/30 08:19:07;;;;;;;10.10;4.80;;;;;31.90;97629.40;;;;110641;1251;41619;-69
2022/08/30 08:21:37;;;;;;;10.00;4.20;;;;;32.48;97626.80;;;;110980;1250;41723;-69
2022/08/30 08:24:06;;;;;;;8.30;3.60;;;;;32.96;97616.40;;;;110801;1251;41258;-68
2022/08/30 08:26:36;;;;;;;9.70;4.30;;;;;34.04;97621.00;;;;110685;1251;41978;-69
2022/08/30 08:29:07;;;;;;;10.40;3.80;;;;;34.60;97615.80;;;;110757;1252;41464;-69
2022/08/30 08:31:36;;;;;;;8.60;4.20;;;;;35.20;97613.40;;;;110768;1250;41622;-69
2022/08/30 08:34:05;;;;;;;9.70;4.00;;;;;36.18;97609.80;;;;110779;1248;41149;-69
2022/08/30 08:36:34;;;;;;;10.10;3.80;;;;;36.80;97609.00;;;;110798;1250;42418;-69
2022/08/30 08:39:06;;;;;;;12.50;3.60;;;;;37.24;97611.60;;;;110739;1250;41290;-69
2022/08/30 08:41:57;;;;;;;8.00;4.00;;;;;36.96;97615.20;;;;110633;1251;41951;-68
2022/08/30 08:44:56;;;;;;;9.60;4.50;;;;;35.64;97613.80;;;;110700;1250;41944;-70
2022/08/30 08:47:29;;;;;;;8.40;3.70;;;;;35.30;97604.80;;;;110943;1251;41170;-70
2022/08/30 08:50:01;;;;;;;9.50;3.50;;;;;36.44;97607.20;;;;110732;1251;42394;-69
2022/08/30 08:55:50;;;;;;;10.50;3.60;;;;;38.96;97593.20;;;;110582;1250;41145;-68
2022/08/30 08:58:26;;;;;;;9.50;3.70;;;;;39.90;97586.60;;;;110735;1249;41191;-69
2022/08/30 09:00:56;;;;;;;10.30;3.80;;;;;40.26;97585.40;;;;110690;1249;41168;-69
2022/08/30 09:03:28;;;;;;;10.00;4.40;;;;;40.70;97582.80;;;;110627;1250;41161;-69
2022/08/30 09:06:15;;;;;;;10.40;4.60;;;;;40.00;97583.40;;;;110679;1250;41182;-70
2022/08/30 09:08:43;;;;;;;10.60;4.30;;;;;39.50;97584.60;;;;110908;1249;41262;-70
2022/08/30 09:11:20;;;;;;;10.10;5.10;;;;;38.54;97586.40;;;;110989;1250;41206;-69
2022/08/30 09:13:49;;;;;;;12.40;4.90;;;;;37.76;97589.20;;;;110976;1250;41148;-70
2022/08/30 09:16:47;;;;;;;13.00;5.30;;;;;36.84;97582.20;;;;110968;1250;41438;-70
2022/08/30 09:19:28;;;;;;;8.30;3.90;;;;;36.18;97585.20;;;;110680;1249;41142;-69
2022/08/30 09:22:06;;;;;;;9.30;4.20;;;;;36.52;97580.80;;;;110797;1251;41125;-69
2022/08/30 09:24:46;;;;;;;13.80;4.90;;;;;37.36;97577.60;;;;110723;1251;41644;-69
2022/08/30 09:27:22;;;;;;;9.80;4.00;;;;;37.30;97575.80;;;;110627;1251;41147;-69
2022/08/30 09:30:00;;;;;;;9.30;3.70;;;;;37.10;97571.20;;;;110683;1250;41249;-69
2022/08/30 09:32:51;;;;;;;10.60;3.80;;;;;37.52;97567.80;;;;110762;1251;42122;-69
2022/08/30 09:35:29;;;;;;;10.40;5.10;;;;;38.30;97565.00;;;;110972;1251;41600;-70
2022/08/30 09:38:05;;;;;;;8.50;3.40;;;;;37.80;97563.20;;;;110743;1251;41773;-70
2022/08/30 09:40:36;;;;;;;9.90;5.00;;;;;36.94;97563.00;;;;110631;1251;41169;-69
2022/08/30 09:43:15;;;;;;;11.30;4.20;;;;;37.26;97562.40;;;;110679;1250;41275;-70
2022/08/30 09:45:48;;;;;;;9.50;3.60;;;;;36.84;97566.80;;;;110632;1251;41242;-69
2022/08/30 09:48:44;;;;;;;9.00;4.20;;;;;37.68;97560.20;;;;110559;1250;41940;-69
2022/08/30 09:51:50;;;;;;;9.80;4.80;;;;;38.44;97559.40;;;;110910;1250;42035;-70
2022/08/30 09:54:25;;;;;;;11.30;4.80;;;;;38.10;97552.20;;;;110795;1250;41131;-69
2022/08/30 09:57:10;;;;;;;9.30;4.00;;;;;37.62;97559.20;;;;110587;1250;41164;-69
2022/08/30 10:00:03;;;;;;;8.50;3.60;;;;;37.40;97558.60;;;;110682;1250;41175;-70
2022/08/30 10:02:41;;;;;;;12.40;5.00;;;;;37.50;97564.80;;;;110586;1250;41616;-69
2022/08/30 10:05:34;;;;;;;10.30;3.90;;;;;36.74;97558.80;;;;110656;1250;41159;-69
2022/08/30 10:08:25;;;;;;;8.20;3.40;;;;;36.40;97558.80;;;;110661;1250;41555;-69
2022/08/30 10:10:58;;;;;;;8.10;3.60;;;;;36.70;97566.00;;;;110651;1250;41270;-69
2022/08/30 10:13:45;;;;;;;9.50;4.70;;;;;35.98;97564.20;;;;110890;1250;41173;-70
2022/08/30 10:16:14;;;;;;;9.90;4.10;;;;;36.00;97566.60;;;;110667;1251;41158;-69
2022/08/30 10:18:59;;;;;;;14.80;4.90;;;;;35.58;97574.20;;;;110609;1250;42259;-69
2022/08/30 10:21:37;;;;;;;11.80;4.80;;;;;35.28;97576.60;;;;110709;1250;41163;-69
2022/08/30 10:24:13;;;;;;;10.40;3.70;;;;;34.42;97576.00;;;;110842;1250;41193;-71
2022/08/30 10:27:10;;;;;;;7.80;3.30;;;;;33.50;97579.00;;;;110806;1250;41145;-70
2022/08/30 10:30:01;;;;;;;9.40;3.90;;;;;33.20;97579.60;;;;110892;1251;42506;-70
2022/08/30 10:32:38;;;;;;;8.50;3.50;;;;;33.12;97579.40;;;;110679;1250;41248;-70
2022/08/30 10:35:23;;;;;;;9.20;3.90;;;;;33.10;97572.60;;;;110375;1254;41201;-70
2022/08/30 10:38:02;;;;;;;9.00;3.90;;;;;33.10;97571.00;;;;110832;1251;41261;-70
2022/08/30 10:43:37;;;;;;;11.80;3.60;;;;;33.30;97557.80;;;;110750;1250;41143;-70
2022/08/30 10:46:35;;;;;;;7.00;3.10;;;;;34.32;97550.20;;;;110813;1250;41155;-68
2022/08/30 10:49:08;;;;;;;8.90;3.00;;;;;35.50;97544.60;;;;110448;1253;41272;-70
2022/08/30 10:51:49;;;;;;;8.10;3.40;;;;;36.26;97541.00;;;;110731;1251;41154;-70
2022/08/30 10:54:39;;;;;;;9.20;3.70;;;;;37.04;97533.80;;;;110658;1248;41168;-70
2022/08/30 10:57:08;;;;;;;9.30;3.70;;;;;37.66;97532.80;;;;110689;1250;41252;-70
2022/08/30 10:59:44;;;;;;;7.40;3.30;;;;;38.10;97526.80;;;;110640;1250;41943;-69
2022/08/30 11:02:49;;;;;;;6.50;2.70;;;;;38.10;97530.20;;;;110743;1251;41271;-70
2022/08/30 11:05:56;;;;;;;8.50;4.00;;;;;38.00;97523.00;;;;110881;1250;41136;-70
2022/08/30 11:08:46;;;;;;;9.70;3.40;;;;;37.50;97518.00;;;;110587;1251;42220;-70
2022/08/30 11:11:33;;;;;;;8.90;3.50;;;;;36.80;97516.00;;;;110568;1251;41269;-69
2022/08/30 11:14:03;;;;;;;6.30;2.50;;;;;37.10;97505.20;;;;110519;1250;41170;-70
2022/08/30 11:16:54;;;;;;;12.20;3.90;;;;;36.92;97501.00;;;;110537;1251;41148;-69
2022/08/30 11:19:31;;;;;;;10.80;3.60;;;;;35.18;97502.20;;;;110576;1251;41148;-71
2022/08/30 11:22:20;;;;;;;10.00;4.20;;;;;36.66;97498.20;;;;110636;1251;41175;-71
2022/08/30 11:25:00;;;;;;;12.10;4.10;;;;;37.40;97490.20;;;;110524;1253;41172;-70
2022/08/30 11:27:41;;;;;;;8.50;3.80;;;;;37.38;97481.80;;;;110518;1253;41917;-70
2022/08/30 11:30:27;;;;;;;11.40;4.10;;;;;37.20;97469.00;;;;110530;1251;41802;-70
2022/08/30 11:33:00;;;;;;;11.60;4.00;;;;;37.94;97467.80;;;;110602;1253;42513;-70
2022/08/30 11:35:42;;;;;;;13.30;4.70;;;;;38.40;97460.60;;;;110627;1251;41160;-70
2022/08/30 11:38:31;;;;;;;8.40;3.90;;;;;38.42;97456.40;;;;110530;1251;41291;-71
2022/08/30 11:41:28;;;;;;;8.60;3.40;;;;;38.00;97451.00;;;;110572;1251;41183;-71
2022/08/30 11:44:22;;;;;;;9.40;3.50;;;;;38.80;97454.80;;;;110590;1250;41432;-71
2022/08/30 11:46:53;;;;;;;12.20;3.70;;;;;39.08;97445.20;;;;110600;1251;41266;-71
2022/08/30 11:49:47;;;;;;;9.20;3.40;;;;;39.22;97446.40;;;;110657;1251;41150;-70
2022/08/30 11:52:27;;;;;;;8.20;3.80;;;;;39.54;97447.20;;;;110571;1254;41663;-71
2022/08/30 11:55:18;;;;;;;9.50;3.30;;;;;40.00;97443.40;;;;110615;1251;41200;-72
2022/08/30 11:57:49;;;;;;;8.40;3.40;;;;;40.08;97446.40;;;;110763;1251;41149;-71
2022/08/30 12:00:28;;;;;;;8.90;3.80;;;;;40.84;97440.60;;;;110721;1251;41905;-71
2022/08/30 12:03:01;;;;;;;8.20;3.00;;;;;41.30;97437.40;;;;110585;1250;41182;-71
2022/08/30 12:05:38;;;;;;;7.70;3.00;;;;;41.48;97436.00;;;;110706;1249;41710;-71
2022/08/30 12:08:19;;;;;;;8.50;3.40;;;;;41.80;97432.60;;;;110652;1250;41443;-71
2022/08/30 12:10:51;;;;;;;10.30;3.20;;;;;41.50;97439.60;;;;110678;1249;41418;-70
2022/08/30 12:13:41;;;;;;;8.70;4.00;;;;;41.08;97441.40;;;;110884;1251;42420;-72
2022/08/30 12:16:22;;;;;;;12.30;3.20;;;;;40.00;97432.00;;;;110613;1251;42506;-71
2022/08/30 12:18:59;;;;;;;8.80;3.10;;;;;38.88;97439.00;;;;110699;1250;41191;-71
2022/08/30 12:21:35;;;;;;;9.60;3.60;;;;;37.60;97444.40;;;;110880;1249;41736;-72
2022/08/30 12:24:17;;;;;;;6.90;2.80;;;;;36.78;97444.00;;;;110688;1250;42338;-72
2022/08/30 12:26:48;;;;;;;9.60;3.10;;;;;36.66;97441.80;;;;110615;1250;41976;-72
2022/08/30 12:29:24;;;;;;;11.00;4.50;;;;;36.44;97435.80;;;;110854;1250;41272;-71
2022/08/30 12:31:57;;;;;;;10.50;4.40;;;;;35.86;97441.60;;;;110654;1250;42500;-71
2022/08/30 12:34:31;;;;;;;10.10;3.40;;;;;35.08;97436.40;;;;110702;1250;41911;-71
2022/08/30 12:37:20;;;;;;;8.60;3.00;;;;;34.70;97437.40;;;;110660;1250;41138;-71
2022/08/30 12:40:14;;;;;;;9.60;3.60;;;;;35.12;97434.80;;;;110628;1250;41158;-71
2022/08/30 12:43:01;;;;;;;8.90;3.60;;;;;36.18;97431.60;;;;110707;1251;41157;-71
2022/08/30 12:45:41;;;;;;;8.20;3.40;;;;;36.96;97431.20;;;;110480;1250;41642;-72
2022/08/30 12:48:14;;;;;;;10.90;4.10;;;;;36.66;97430.20;;;;110727;1250;41155;-72